Terminal Aerodrome Forecast
Issued by NWS

Home | Current Version | Previous Version | Text Only | Print | Product List | Glossary On
Versions: 1 2 3 4 5 6 7 8 9 10 11 12 13 14 15
271
FTUS46 KSEW 121130
TAFBLI
TAF
KBLI 121130Z 1212/1312 35005KT P6SM -RA OVC022
     FM121400 15012G18KT P6SM -RA OVC022
     FM122000 18012KT P6SM VCSH SCT025 BKN050=

USA.gov is the U.S. government's official web portal to all federal, state and local government web resources and services.